Time;durP1;ratioP1;P1;durP2;ratioP2;P2;SDS_P1;SDS_P2;PMS_P1;PMS_P2;Temp;Humidity;BMP_temperature;BMP_pressure;BME280_temperature;BME280_humidity;BME280_pressure;Samples;Min_cycle;Max_cycle;Signal;HPM_P1;HPM_P2
2021/12/20 00:00:08;;;;;;;16.47;3.50;;;;;;;;;;5070217;28;20219;-71
2021/12/20 00:02:34;;;;;;;13.40;3.27;;;;;;;;;;5070733;28;20234;-71
2021/12/20 00:05:00;;;;;;;19.47;4.83;;;;;;;;;;5071023;28;20234;-71
2021/12/20 00:07:27;;;;;;;15.77;3.67;;;;;;;;;;5069999;28;20219;-71
2021/12/20 00:09:53;;;;;;;16.57;3.73;;;;;;;;;;5068659;28;20362;-71
2021/12/20 00:12:19;;;;;;;16.20;4.00;;;;;;;;;;5068879;28;20211;-71
2021/12/20 00:14:46;;;;;;;22.23;4.33;;;;;;;;;;5068864;28;20619;-71
2021/12/20 00:17:14;;;;;;;16.57;4.23;;;;;;;;;;5068449;28;20258;-72
2021/12/20 00:19:40;;;;;;;18.33;4.17;;;;;;;;;;5069661;28;21123;-71
2021/12/20 00:22:06;;;;;;;17.40;3.87;;;;;;;;;;5069251;28;20271;-71
2021/12/20 00:24:33;;;;;;;16.37;4.10;;;;;;;;;;5066378;28;20268;-71
2021/12/20 00:27:01;;;;;;;20.43;3.80;;;;;;;;;;5070626;28;20260;-71
2021/12/20 00:29:28;;;;;;;19.20;3.70;;;;;;;;;;5069070;28;20206;-71
2021/12/20 00:31:54;;;;;;;17.00;3.37;;;;;;;;;;5068727;28;20229;-71
2021/12/20 00:34:22;;;;;;;19.57;3.67;;;;;;;;;;5069622;28;20722;-73
2021/12/20 00:36:56;;;;;;;17.97;4.03;;;;;;;;;;5069737;28;20251;-71
2021/12/20 00:42:07;;;;;;;14.13;3.87;;;;;;;;;;5069716;28;20263;-71
2021/12/20 00:44:34;;;;;;;16.70;3.63;;;;;;;;;;5069255;28;20230;-72
2021/12/20 00:47:00;;;;;;;18.77;4.70;;;;;;;;;;5069848;28;20227;-71
2021/12/20 00:49:28;;;;;;;20.17;4.40;;;;;;;;;;5068201;28;20225;-71
2021/12/20 00:51:54;;;;;;;20.17;4.00;;;;;;;;;;5068269;28;20866;-71
2021/12/20 00:54:21;;;;;;;22.77;3.97;;;;;;;;;;5067037;28;20209;-71
2021/12/20 00:56:48;;;;;;;15.40;3.80;;;;;;;;;;5068518;28;20209;-71
2021/12/20 00:59:15;;;;;;;17.93;3.37;;;;;;;;;;5067246;28;20216;-71
2021/12/20 01:01:41;;;;;;;17.37;3.40;;;;;;;;;;5066754;28;20230;-71
2021/12/20 01:04:08;;;;;;;22.37;4.47;;;;;;;;;;5067522;28;20230;-73
2021/12/20 01:06:36;;;;;;;18.37;3.40;;;;;;;;;;5068979;28;20215;-73
2021/12/20 01:09:03;;;;;;;19.37;3.67;;;;;;;;;;5066861;28;20264;-73
2021/12/20 01:11:30;;;;;;;19.53;3.87;;;;;;;;;;5066701;28;20582;-73
2021/12/20 01:13:58;;;;;;;19.00;3.60;;;;;;;;;;5068418;28;20214;-73
2021/12/20 01:16:31;;;;;;;18.37;3.83;;;;;;;;;;5068652;28;20221;-73
2021/12/20 01:18:58;;;;;;;19.73;3.37;;;;;;;;;;5070453;28;20206;-73
2021/12/20 01:21:25;;;;;;;13.30;3.00;;;;;;;;;;5067989;28;20222;-71
2021/12/20 01:23:53;;;;;;;18.60;3.77;;;;;;;;;;5070162;28;20237;-71
2021/12/20 01:26:19;;;;;;;18.20;4.43;;;;;;;;;;5066064;28;20261;-73
2021/12/20 01:28:46;;;;;;;16.63;4.23;;;;;;;;;;5067208;28;20254;-73
2021/12/20 01:31:12;;;;;;;15.83;3.90;;;;;;;;;;5066495;28;20226;-71
2021/12/20 01:33:39;;;;;;;14.00;3.13;;;;;;;;;;5067298;28;20279;-71
2021/12/20 01:36:05;;;;;;;17.40;3.67;;;;;;;;;;5068894;28;20206;-71
2021/12/20 01:38:32;;;;;;;24.50;3.93;;;;;;;;;;5067854;28;20962;-71
2021/12/20 01:40:59;;;;;;;21.93;4.67;;;;;;;;;;5068212;28;20225;-73
2021/12/20 01:43:26;;;;;;;18.40;3.73;;;;;;;;;;5069346;28;20217;-73
2021/12/20 01:45:52;;;;;;;22.60;4.20;;;;;;;;;;5068418;28;20841;-73
2021/12/20 01:48:21;;;;;;;13.93;3.07;;;;;;;;;;5067953;28;20418;-73
2021/12/20 01:53:29;;;;;;;17.63;3.60;;;;;;;;;;5065949;28;20312;-73
2021/12/20 01:55:57;;;;;;;22.23;4.30;;;;;;;;;;5066726;28;20256;-73
2021/12/20 01:58:27;;;;;;;16.13;3.97;;;;;;;;;;5069095;28;20201;-73
2021/12/20 02:03:38;;;;;;;22.57;4.00;;;;;;;;;;5071870;28;20241;-73
2021/12/20 02:06:10;;;;;;;21.97;4.50;;;;;;;;;;5070022;28;20221;-73
2021/12/20 02:08:37;;;;;;;19.53;3.53;;;;;;;;;;5072077;28;20548;-73
2021/12/20 02:11:09;;;;;;;19.80;4.03;;;;;;;;;;5071599;28;20607;-73
2021/12/20 02:13:38;;;;;;;12.07;3.27;;;;;;;;;;5070473;28;20221;-73
2021/12/20 02:16:05;;;;;;;15.33;3.80;;;;;;;;;;5070852;28;20221;-72
2021/12/20 02:18:33;;;;;;;15.67;3.67;;;;;;;;;;5072950;28;20219;-72
2021/12/20 02:21:01;;;;;;;19.93;4.13;;;;;;;;;;5072251;28;20237;-72
2021/12/20 02:23:28;;;;;;;19.23;3.47;;;;;;;;;;5071310;28;20703;-72
2021/12/20 02:25:54;;;;;;;16.37;3.03;;;;;;;;;;5067923;28;20513;-72
2021/12/20 02:28:23;;;;;;;17.37;3.83;;;;;;;;;;5071891;28;20210;-72
2021/12/20 02:36:53;;;;;;;20.17;4.13;;;;;;;;;;5071439;28;20226;-72
2021/12/20 02:39:08;;;;;;;14.77;3.40;;;;;;;;;;5070182;28;20209;-72
2021/12/20 02:41:35;;;;;;;17.70;4.03;;;;;;;;;;5071001;28;21060;-72
2021/12/20 02:44:05;;;;;;;15.60;3.37;;;;;;;;;;5071206;28;20612;-72
2021/12/20 02:46:47;;;;;;;21.03;4.07;;;;;;;;;;5070425;28;20223;-71
2021/12/20 02:49:16;;;;;;;15.97;3.73;;;;;;;;;;5070353;28;20227;-72
2021/12/20 02:51:45;;;;;;;14.77;3.50;;;;;;;;;;5071136;28;20268;-72
2021/12/20 02:54:13;;;;;;;14.60;3.10;;;;;;;;;;5071712;28;20267;-72
2021/12/20 02:56:41;;;;;;;15.90;3.50;;;;;;;;;;5070200;28;20280;-72
2021/12/20 02:59:08;;;;;;;18.37;3.60;;;;;;;;;;5070923;28;20241;-72
2021/12/20 03:01:36;;;;;;;23.13;3.83;;;;;;;;;;5069484;28;20221;-72
2021/12/20 03:04:04;;;;;;;23.30;4.70;;;;;;;;;;5071053;28;20976;-72
2021/12/20 03:06:41;;;;;;;22.80;5.03;;;;;;;;;;5071358;28;20230;-72
2021/12/20 03:09:12;;;;;;;16.27;3.90;;;;;;;;;;5069072;28;20210;-72
2021/12/20 03:11:39;;;;;;;15.67;3.70;;;;;;;;;;5070426;28;20257;-72
2021/12/20 03:14:15;;;;;;;15.53;3.40;;;;;;;;;;5070446;28;20264;-71
2021/12/20 03:16:42;;;;;;;13.03;3.37;;;;;;;;;;5069493;28;20796;-72
2021/12/20 03:19:09;;;;;;;21.63;4.17;;;;;;;;;;5070787;28;20259;-72
2021/12/20 03:21:35;;;;;;;24.43;4.30;;;;;;;;;;5072163;28;20281;-72
2021/12/20 03:24:02;;;;;;;18.77;3.70;;;;;;;;;;5071844;28;20245;-71
2021/12/20 03:26:30;;;;;;;20.83;4.57;;;;;;;;;;5069583;28;20334;-72
2021/12/20 03:28:56;;;;;;;20.97;3.27;;;;;;;;;;5069479;28;20202;-72
2021/12/20 03:31:23;;;;;;;18.07;3.47;;;;;;;;;;5070097;28;20256;-72
2021/12/20 03:33:49;;;;;;;15.73;4.40;;;;;;;;;;5070440;28;20678;-72
2021/12/20 03:36:16;;;;;;;14.63;3.10;;;;;;;;;;5070036;28;20201;-72
2021/12/20 03:38:42;;;;;;;16.53;3.40;;;;;;;;;;5070360;28;20254;-72
2021/12/20 03:41:09;;;;;;;19.47;3.67;;;;;;;;;;5069653;28;20232;-72
2021/12/20 03:43:37;;;;;;;12.90;3.07;;;;;;;;;;5069295;28;20221;-72
2021/12/20 03:46:04;;;;;;;14.47;3.33;;;;;;;;;;5071062;28;20234;-72
2021/12/20 03:48:31;;;;;;;14.87;3.63;;;;;;;;;;5070061;28;20236;-72
2021/12/20 03:51:00;;;;;;;24.50;4.43;;;;;;;;;;5069747;28;20210;-72
2021/12/20 03:53:27;;;;;;;17.60;3.50;;;;;;;;;;5069948;28;20209;-72
2021/12/20 03:55:53;;;;;;;19.10;3.20;;;;;;;;;;5071032;28;20222;-72
2021/12/20 03:58:20;;;;;;;17.40;3.20;;;;;;;;;;5068302;28;20206;-72
2021/12/20 04:00:49;;;;;;;18.77;3.20;;;;;;;;;;5069066;28;20232;-72
2021/12/20 04:03:15;;;;;;;17.40;3.87;;;;;;;;;;5069987;28;20221;-72
2021/12/20 04:05:42;;;;;;;16.70;3.17;;;;;;;;;;5070201;28;20222;-72
2021/12/20 04:08:09;;;;;;;15.60;4.17;;;;;;;;;;5066539;28;20269;-72
2021/12/20 04:10:35;;;;;;;11.20;2.83;;;;;;;;;;5068941;28;20291;-72
2021/12/20 04:13:02;;;;;;;17.37;3.30;;;;;;;;;;5069619;28;20215;-72
2021/12/20 04:15:28;;;;;;;11.23;2.80;;;;;;;;;;5070118;28;20630;-72
2021/12/20 04:17:56;;;;;;;14.50;2.80;;;;;;;;;;5069752;28;20376;-72
2021/12/20 04:20:23;;;;;;;13.93;3.43;;;;;;;;;;5069083;28;20659;-72
2021/12/20 04:22:49;;;;;;;15.27;3.00;;;;;;;;;;5068758;28;20214;-71
2021/12/20 04:25:15;;;;;;;15.10;3.17;;;;;;;;;;5064988;28;20720;-71
2021/12/20 04:27:42;;;;;;;11.17;2.80;;;;;;;;;;5070001;28;20734;-72
2021/12/20 04:30:10;;;;;;;12.17;3.10;;;;;;;;;;5068405;28;20214;-71
2021/12/20 04:32:37;;;;;;;15.70;2.87;;;;;;;;;;5069173;28;20224;-71
2021/12/20 04:35:06;;;;;;;16.17;2.90;;;;;;;;;;5070185;28;20276;-71
2021/12/20 04:37:33;;;;;;;13.37;2.83;;;;;;;;;;5069705;28;20214;-71
2021/12/20 04:40:05;;;;;;;15.57;2.87;;;;;;;;;;5069198;28;20741;-71
2021/12/20 04:42:31;;;;;;;9.77;1.83;;;;;;;;;;5068476;28;20214;-71
2021/12/20 04:44:58;;;;;;;12.37;2.27;;;;;;;;;;5069096;28;20909;-71
2021/12/20 04:47:24;;;;;;;11.40;2.60;;;;;;;;;;5068714;28;20761;-71
2021/12/20 04:49:50;;;;;;;13.13;3.50;;;;;;;;;;5068425;28;20600;-71
2021/12/20 04:52:18;;;;;;;14.47;2.63;;;;;;;;;;5069791;28;20209;-71
2021/12/20 04:54:45;;;;;;;13.27;2.90;;;;;;;;;;5067992;28;20275;-71
2021/12/20 04:57:11;;;;;;;16.27;2.90;;;;;;;;;;5066923;28;20243;-71
2021/12/20 04:59:37;;;;;;;15.47;2.50;;;;;;;;;;5068801;28;20213;-71
2021/12/20 05:02:04;;;;;;;14.67;2.53;;;;;;;;;;5069081;28;20233;-71
2021/12/20 05:04:31;;;;;;;14.77;2.50;;;;;;;;;;5067748;28;20214;-71
2021/12/20 05:06:57;;;;;;;15.97;3.37;;;;;;;;;;5067615;28;20323;-71
2021/12/20 05:09:28;;;;;;;15.87;2.73;;;;;;;;;;5070578;28;20214;-71
2021/12/20 05:12:09;;;;;;;12.87;2.70;;;;;;;;;;5069040;28;20214;-71
2021/12/20 05:14:35;;;;;;;21.43;2.73;;;;;;;;;;5069296;28;20209;-71
2021/12/20 05:17:02;;;;;;;12.10;2.30;;;;;;;;;;5069980;28;20266;-71
2021/12/20 05:19:28;;;;;;;13.67;2.37;;;;;;;;;;5069536;28;20279;-71
2021/12/20 05:21:56;;;;;;;10.57;2.03;;;;;;;;;;5067357;28;20278;-71
2021/12/20 05:24:22;;;;;;;15.33;2.40;;;;;;;;;;5067010;28;20228;-71
2021/12/20 05:26:50;;;;;;;7.80;2.53;;;;;;;;;;5069772;28;20234;-71
2021/12/20 05:29:16;;;;;;;13.17;2.77;;;;;;;;;;5068555;28;20287;-71
2021/12/20 05:31:43;;;;;;;10.43;2.30;;;;;;;;;;5069527;28;20225;-79
2021/12/20 05:34:09;;;;;;;10.17;2.30;;;;;;;;;;5068660;28;20210;-76
2021/12/20 05:36:36;;;;;;;13.23;2.20;;;;;;;;;;5070170;28;20275;-76
2021/12/20 05:39:04;;;;;;;10.10;1.53;;;;;;;;;;5071985;28;20271;-76
2021/12/20 05:41:31;;;;;;;11.50;2.53;;;;;;;;;;5072985;28;20221;-76
2021/12/20 05:43:59;;;;;;;13.80;2.33;;;;;;;;;;5074632;28;20221;-76
2021/12/20 05:46:25;;;;;;;14.80;2.27;;;;;;;;;;5070930;28;20225;-76
2021/12/20 05:48:51;;;;;;;11.50;1.97;;;;;;;;;;5074272;28;20226;-76
2021/12/20 05:51:18;;;;;;;18.37;2.67;;;;;;;;;;5070434;28;20214;-76
2021/12/20 05:53:45;;;;;;;9.53;2.07;;;;;;;;;;5071737;28;20214;-76
2021/12/20 05:56:12;;;;;;;9.13;2.23;;;;;;;;;;5070566;28;20790;-76
2021/12/20 05:58:39;;;;;;;12.03;1.80;;;;;;;;;;5070935;28;20210;-76
2021/12/20 06:01:06;;;;;;;9.47;1.90;;;;;;;;;;5071889;28;20229;-76
2021/12/20 06:03:33;;;;;;;14.63;2.07;;;;;;;;;;5072303;28;20201;-76
2021/12/20 06:06:00;;;;;;;7.23;1.80;;;;;;;;;;5071354;28;20240;-76
2021/12/20 06:08:26;;;;;;;8.17;1.60;;;;;;;;;;5071101;28;20747;-76
2021/12/20 06:10:53;;;;;;;11.87;1.70;;;;;;;;;;5070205;28;20283;-76
2021/12/20 06:13:19;;;;;;;8.87;1.70;;;;;;;;;;5070795;28;20209;-76
2021/12/20 06:15:46;;;;;;;10.97;1.67;;;;;;;;;;5071384;28;20226;-77
2021/12/20 06:18:15;;;;;;;8.80;1.60;;;;;;;;;;5070842;28;20579;-76
2021/12/20 06:20:44;;;;;;;8.33;1.73;;;;;;;;;;5070730;28;20271;-76
2021/12/20 06:23:11;;;;;;;7.57;1.80;;;;;;;;;;5071773;28;20628;-76
2021/12/20 06:25:37;;;;;;;10.57;1.97;;;;;;;;;;5070618;28;20234;-76
2021/12/20 06:28:04;;;;;;;6.80;1.50;;;;;;;;;;5073191;28;20213;-78
2021/12/20 06:30:31;;;;;;;7.97;1.97;;;;;;;;;;5073035;28;20218;-78
2021/12/20 06:32:57;;;;;;;8.60;1.67;;;;;;;;;;5073376;28;20214;-78
2021/12/20 06:35:26;;;;;;;8.40;1.70;;;;;;;;;;5070303;28;20214;-77
2021/12/20 06:37:59;;;;;;;8.33;1.90;;;;;;;;;;5071730;28;20259;-77
2021/12/20 06:40:26;;;;;;;9.97;1.60;;;;;;;;;;5073507;28;20228;-78
2021/12/20 06:42:53;;;;;;;5.80;1.20;;;;;;;;;;5074172;28;20206;-78
2021/12/20 06:45:19;;;;;;;8.67;1.60;;;;;;;;;;5072398;28;20220;-78
2021/12/20 06:47:47;;;;;;;7.00;1.27;;;;;;;;;;5072926;28;20223;-78
2021/12/20 06:50:13;;;;;;;7.53;1.70;;;;;;;;;;5073989;28;20237;-79
2021/12/20 06:52:41;;;;;;;8.10;1.57;;;;;;;;;;5070605;28;20217;-76
2021/12/20 06:55:09;;;;;;;7.30;1.83;;;;;;;;;;5071168;28;20233;-76
2021/12/20 06:57:36;;;;;;;13.13;2.00;;;;;;;;;;5071183;28;20484;-76
2021/12/20 07:00:04;;;;;;;7.40;1.83;;;;;;;;;;5070638;28;20207;-76
2021/12/20 07:02:30;;;;;;;7.37;1.63;;;;;;;;;;5070615;28;20226;-77
2021/12/20 07:04:57;;;;;;;8.87;1.47;;;;;;;;;;5071096;28;20280;-77
2021/12/20 07:07:24;;;;;;;7.00;1.57;;;;;;;;;;5069281;28;20226;-76
2021/12/20 07:09:52;;;;;;;10.87;1.90;;;;;;;;;;5068958;28;20231;-76
2021/12/20 07:12:18;;;;;;;12.63;1.87;;;;;;;;;;5070269;28;20559;-76
2021/12/20 07:14:49;;;;;;;10.13;2.03;;;;;;;;;;5069135;28;20214;-77
2021/12/20 07:17:15;;;;;;;11.97;1.80;;;;;;;;;;5070860;28;20225;-76
2021/12/20 07:19:41;;;;;;;8.60;2.03;;;;;;;;;;5068344;28;20270;-76
2021/12/20 07:22:08;;;;;;;8.23;1.73;;;;;;;;;;5067062;28;20630;-76
2021/12/20 07:24:35;;;;;;;8.93;1.47;;;;;;;;;;5068715;28;20716;-77
2021/12/20 07:27:03;;;;;;;6.43;1.53;;;;;;;;;;5070276;28;20701;-78
2021/12/20 07:29:30;;;;;;;9.57;1.90;;;;;;;;;;5071276;28;20214;-78
2021/12/20 07:31:56;;;;;;;9.20;1.93;;;;;;;;;;5070710;28;20893;-78
2021/12/20 07:34:23;;;;;;;11.87;1.70;;;;;;;;;;5071460;28;20210;-78
2021/12/20 07:36:51;;;;;;;11.77;2.40;;;;;;;;;;5071554;28;20621;-78
2021/12/20 07:39:17;;;;;;;7.07;1.90;;;;;;;;;;5072324;28;20599;-78
2021/12/20 07:41:44;;;;;;;7.77;2.00;;;;;;;;;;5069396;28;20272;-78
2021/12/20 07:44:12;;;;;;;8.60;2.10;;;;;;;;;;5067936;28;20241;-78
2021/12/20 07:46:39;;;;;;;6.17;2.33;;;;;;;;;;5068645;28;20227;-78
2021/12/20 07:49:05;;;;;;;8.17;1.90;;;;;;;;;;5066646;28;20229;-76
2021/12/20 07:51:32;;;;;;;9.47;2.53;;;;;;;;;;5067141;28;20219;-76
2021/12/20 07:53:58;;;;;;;7.33;2.20;;;;;;;;;;5068346;28;20272;-77
2021/12/20 07:56:25;;;;;;;8.23;1.70;;;;;;;;;;5066334;28;20257;-76
2021/12/20 07:58:51;;;;;;;11.67;1.77;;;;;;;;;;5067898;28;20217;-76
2021/12/20 08:01:19;;;;;;;13.17;2.20;;;;;;;;;;5067598;28;20812;-76
2021/12/20 08:03:46;;;;;;;8.37;1.77;;;;;;;;;;5066583;28;20255;-77
2021/12/20 08:06:12;;;;;;;9.17;2.57;;;;;;;;;;5067241;28;20287;-78
2021/12/20 08:08:42;;;;;;;8.60;2.67;;;;;;;;;;5067792;28;20676;-77
2021/12/20 08:11:09;;;;;;;12.00;2.77;;;;;;;;;;5066830;28;20225;-76
2021/12/20 08:13:44;;;;;;;10.87;2.40;;;;;;;;;;5068466;28;20239;-77
2021/12/20 08:16:11;;;;;;;9.90;2.10;;;;;;;;;;5066311;28;20320;-76
2021/12/20 08:18:39;;;;;;;6.27;1.57;;;;;;;;;;5068324;28;20211;-76
2021/12/20 08:21:05;;;;;;;10.30;2.20;;;;;;;;;;5069347;28;20209;-78
2021/12/20 08:23:32;;;;;;;9.57;1.77;;;;;;;;;;5064788;28;20219;-76
2021/12/20 08:25:58;;;;;;;10.10;1.97;;;;;;;;;;5066797;28;20240;-77
2021/12/20 08:28:25;;;;;;;9.00;2.20;;;;;;;;;;5065714;28;21036;-77
2021/12/20 08:30:53;;;;;;;7.63;1.67;;;;;;;;;;5065351;28;20724;-76
2021/12/20 08:33:19;;;;;;;7.57;1.53;;;;;;;;;;5067439;28;20214;-76
2021/12/20 08:35:49;;;;;;;8.03;2.73;;;;;;;;;;5065544;28;20215;-76
2021/12/20 08:38:16;;;;;;;11.83;3.50;;;;;;;;;;5066892;28;20295;-76
2021/12/20 08:40:42;;;;;;;7.90;2.37;;;;;;;;;;5066898;28;20221;-76
2021/12/20 08:43:09;;;;;;;6.97;1.67;;;;;;;;;;5066823;28;20217;-76
2021/12/20 08:45:36;;;;;;;6.70;1.97;;;;;;;;;;5067572;28;20260;-76
2021/12/20 08:48:03;;;;;;;6.20;1.97;;;;;;;;;;5067474;28;20578;-76
2021/12/20 08:50:29;;;;;;;9.47;3.83;;;;;;;;;;5068327;28;20900;-76
2021/12/20 08:52:57;;;;;;;6.97;2.07;;;;;;;;;;5067588;28;20206;-76
2021/12/20 08:55:25;;;;;;;7.80;1.70;;;;;;;;;;5065352;28;20228;-77
2021/12/20 08:57:52;;;;;;;8.70;2.17;;;;;;;;;;5067166;28;20309;-76
2021/12/20 09:00:22;;;;;;;11.57;1.80;;;;;;;;;;5064596;28;20214;-76
2021/12/20 09:02:49;;;;;;;7.20;1.70;;;;;;;;;;5068049;28;20254;-76
2021/12/20 09:05:15;;;;;;;5.37;1.60;;;;;;;;;;5066236;28;20882;-76
2021/12/20 09:07:42;;;;;;;6.83;1.90;;;;;;;;;;5067295;28;20692;-76
2021/12/20 09:10:12;;;;;;;11.33;1.87;;;;;;;;;;5066064;28;20237;-76
2021/12/20 09:12:39;;;;;;;10.57;2.20;;;;;;;;;;5072698;28;20232;-78
2021/12/20 09:15:07;;;;;;;9.33;2.10;;;;;;;;;;5071756;28;20294;-76
2021/12/20 09:17:33;;;;;;;4.73;1.30;;;;;;;;;;5071748;28;20221;-76
2021/12/20 09:20:00;;;;;;;7.87;2.43;;;;;;;;;;5070275;28;20724;-76
2021/12/20 09:22:29;;;;;;;5.73;1.53;;;;;;;;;;5072534;28;20222;-76
2021/12/20 09:24:56;;;;;;;8.47;1.70;;;;;;;;;;5068437;28;20689;-77
2021/12/20 09:27:24;;;;;;;4.93;1.30;;;;;;;;;;5070452;28;20233;-76
2021/12/20 09:29:50;;;;;;;8.20;1.97;;;;;;;;;;5071395;28;20298;-76
2021/12/20 09:32:17;;;;;;;7.53;1.57;;;;;;;;;;5070591;28;20628;-77
2021/12/20 09:34:43;;;;;;;8.90;1.77;;;;;;;;;;5071817;28;20212;-78
2021/12/20 09:37:10;;;;;;;6.60;1.70;;;;;;;;;;5071072;28;20210;-77
2021/12/20 09:39:39;;;;;;;5.67;1.33;;;;;;;;;;5069538;28;20216;-75
2021/12/20 09:42:07;;;;;;;8.50;1.57;;;;;;;;;;5069102;28;20656;-75
2021/12/20 09:44:35;;;;;;;9.70;4.00;;;;;;;;;;5066833;28;20222;-75
2021/12/20 09:47:03;;;;;;;12.53;2.20;;;;;;;;;;5066799;28;20243;-77
2021/12/20 09:49:31;;;;;;;9.93;1.70;;;;;;;;;;5068759;28;20271;-78
2021/12/20 09:51:58;;;;;;;7.37;1.80;;;;;;;;;;5067571;28;20617;-78
2021/12/20 09:54:26;;;;;;;7.97;2.10;;;;;;;;;;5069268;28;20215;-78
2021/12/20 09:56:53;;;;;;;7.20;2.13;;;;;;;;;;5070893;28;20677;-77
2021/12/20 09:59:22;;;;;;;8.17;1.63;;;;;;;;;;5072092;28;20968;-78
2021/12/20 10:01:51;;;;;;;7.80;1.87;;;;;;;;;;5069977;28;20227;-78
2021/12/20 10:04:18;;;;;;;8.40;1.80;;;;;;;;;;5069310;28;20330;-77
2021/12/20 10:06:45;;;;;;;10.50;2.17;;;;;;;;;;5072083;28;20264;-77
2021/12/20 10:09:14;;;;;;;12.07;2.03;;;;;;;;;;5068044;28;20213;-78
2021/12/20 10:11:41;;;;;;;10.50;1.93;;;;;;;;;;5068704;28;20231;-78
2021/12/20 10:14:09;;;;;;;7.47;1.57;;;;;;;;;;5069886;28;20266;-78
2021/12/20 10:16:37;;;;;;;7.93;2.10;;;;;;;;;;5070070;28;20287;-77
2021/12/20 10:19:09;;;;;;;7.10;1.50;;;;;;;;;;5069395;28;20208;-77
2021/12/20 10:21:37;;;;;;;9.20;1.90;;;;;;;;;;5069698;28;20224;-77
2021/12/20 10:24:05;;;;;;;7.33;1.60;;;;;;;;;;5068613;28;20230;-77
2021/12/20 10:26:40;;;;;;;6.27;2.23;;;;;;;;;;5070591;28;20610;-77
2021/12/20 10:29:18;;;;;;;9.60;2.43;;;;;;;;;;5068319;28;20234;-77
2021/12/20 10:31:45;;;;;;;7.70;2.27;;;;;;;;;;5069839;28;20226;-75
2021/12/20 10:34:13;;;;;;;7.27;1.47;;;;;;;;;;5068682;28;20207;-76
2021/12/20 10:36:50;;;;;;;8.63;1.97;;;;;;;;;;5071022;28;20698;-75
2021/12/20 10:39:17;;;;;;;6.53;1.90;;;;;;;;;;5069655;28;20257;-75
2021/12/20 10:41:50;;;;;;;8.50;2.33;;;;;;;;;;5069023;28;20318;-75
2021/12/20 10:44:18;;;;;;;9.87;2.00;;;;;;;;;;5069827;28;20200;-76
2021/12/20 10:46:47;;;;;;;7.77;1.87;;;;;;;;;;5070416;28;20504;-75
2021/12/20 10:49:15;;;;;;;7.70;2.07;;;;;;;;;;5070399;28;20642;-75
2021/12/20 10:51:44;;;;;;;9.97;1.90;;;;;;;;;;5070048;28;20208;-75
2021/12/20 10:54:15;;;;;;;9.23;2.23;;;;;;;;;;5067418;28;20679;-75
2021/12/20 10:56:48;;;;;;;10.47;1.80;;;;;;;;;;5068360;28;20228;-75
2021/12/20 10:59:15;;;;;;;9.43;1.97;;;;;;;;;;5069686;28;20205;-75
2021/12/20 11:02:11;;;;;;;10.37;2.20;;;;;;;;;;5068059;28;20240;-75
2021/12/20 11:04:46;;;;;;;13.60;1.90;;;;;;;;;;5068447;28;20213;-75
2021/12/20 11:10:06;;;;;;;8.93;1.67;;;;;;;;;;5068396;28;20237;-75
2021/12/20 11:12:35;;;;;;;6.27;1.53;;;;;;;;;;5068056;28;20675;-76
2021/12/20 11:15:07;;;;;;;8.20;2.13;;;;;;;;;;5070230;28;20259;-77
2021/12/20 11:17:34;;;;;;;9.17;1.77;;;;;;;;;;5068917;28;20634;-76
2021/12/20 11:20:02;;;;;;;9.30;2.50;;;;;;;;;;5069299;28;20213;-77
2021/12/20 11:22:31;;;;;;;8.30;2.30;;;;;;;;;;5068007;28;20205;-77
2021/12/20 11:25:00;;;;;;;9.37;2.10;;;;;;;;;;5068639;28;20297;-77
2021/12/20 11:27:30;;;;;;;8.37;1.87;;;;;;;;;;5068667;28;20946;-77
2021/12/20 11:29:57;;;;;;;6.60;1.90;;;;;;;;;;5068448;28;20209;-77
2021/12/20 11:32:26;;;;;;;8.07;1.83;;;;;;;;;;5067333;28;20231;-75
2021/12/20 11:34:53;;;;;;;8.10;2.10;;;;;;;;;;5068800;28;20306;-74
2021/12/20 11:37:24;;;;;;;8.03;2.10;;;;;;;;;;5065438;28;20209;-77
2021/12/20 11:39:50;;;;;;;8.87;2.30;;;;;;;;;;5069056;28;20259;-76
2021/12/20 11:42:18;;;;;;;10.83;1.97;;;;;;;;;;5067138;28;20212;-77
2021/12/20 11:44:47;;;;;;;7.67;2.07;;;;;;;;;;5069982;28;20209;-76
2021/12/20 11:47:27;;;;;;;9.20;2.30;;;;;;;;;;5067057;28;20774;-74
2021/12/20 11:49:59;;;;;;;7.97;1.90;;;;;;;;;;5069477;28;20933;-76
2021/12/20 11:52:30;;;;;;;11.57;1.73;;;;;;;;;;5067806;28;20271;-74
2021/12/20 11:54:57;;;;;;;8.23;2.63;;;;;;;;;;5069159;28;20359;-74
2021/12/20 11:57:39;;;;;;;7.73;2.23;;;;;;;;;;5066927;28;20213;-74
2021/12/20 12:00:10;;;;;;;10.20;1.83;;;;;;;;;;5067692;28;20223;-74
2021/12/20 12:02:42;;;;;;;8.50;1.73;;;;;;;;;;5066926;28;20226;-75
2021/12/20 12:05:11;;;;;;;10.93;2.10;;;;;;;;;;5068850;28;20213;-75
2021/12/20 12:07:41;;;;;;;9.60;2.60;;;;;;;;;;5068472;28;20228;-76
2021/12/20 12:10:10;;;;;;;7.83;2.00;;;;;;;;;;5064239;28;20269;-75
2021/12/20 12:12:41;;;;;;;11.57;2.60;;;;;;;;;;5070817;28;20209;-75
2021/12/20 12:15:10;;;;;;;5.57;1.90;;;;;;;;;;5072240;28;20225;-75
2021/12/20 12:17:54;;;;;;;7.73;1.77;;;;;;;;;;5068589;28;20229;-75
2021/12/20 12:20:46;;;;;;;10.67;2.20;;;;;;;;;;5069348;28;20581;-75
2021/12/20 12:23:18;;;;;;;6.90;1.90;;;;;;;;;;5070455;28;20337;-75
2021/12/20 12:25:47;;;;;;;5.43;1.50;;;;;;;;;;5067208;28;20237;-75
2021/12/20 12:28:15;;;;;;;6.77;2.00;;;;;;;;;;5066832;28;20228;-75
2021/12/20 12:30:44;;;;;;;7.63;2.20;;;;;;;;;;5067621;28;21206;-75
2021/12/20 12:33:34;;;;;;;7.33;1.90;;;;;;;;;;5067324;28;20213;-75
2021/12/20 12:36:04;;;;;;;11.27;1.93;;;;;;;;;;5068624;28;20210;-75
2021/12/20 12:38:35;;;;;;;7.83;1.70;;;;;;;;;;5068777;28;20758;-75
2021/12/20 12:41:13;;;;;;;7.80;2.10;;;;;;;;;;5065835;28;20225;-76
2021/12/20 12:43:53;;;;;;;9.63;2.27;;;;;;;;;;5068417;28;20213;-75
2021/12/20 12:46:48;;;;;;;8.10;2.60;;;;;;;;;;5065585;28;20223;-75
2021/12/20 12:49:49;;;;;;;9.57;1.90;;;;;;;;;;5065240;28;20240;-76
2021/12/20 12:52:50;;;;;;;9.93;2.00;;;;;;;;;;5066682;28;20801;-75
2021/12/20 12:55:30;;;;;;;12.27;2.57;;;;;;;;;;4982024;28;20227;-75
2021/12/20 12:57:57;;;;;;;10.87;2.70;;;;;;;;;;4985017;28;20219;-75
2021/12/20 13:00:29;;;;;;;15.13;2.73;;;;;;;;;;5027086;28;20213;-75
2021/12/20 13:03:07;;;;;;;9.80;2.10;;;;;;;;;;5066509;28;20213;-75
2021/12/20 13:05:35;;;;;;;7.97;2.33;;;;;;;;;;5066752;28;20290;-75
2021/12/20 13:08:03;;;;;;;14.27;2.63;;;;;;;;;;5066364;28;20233;-75
2021/12/20 13:10:36;;;;;;;8.67;2.10;;;;;;;;;;5066281;28;20217;-75
2021/12/20 13:13:07;;;;;;;6.60;1.93;;;;;;;;;;5067383;28;20214;-75
2021/12/20 13:15:39;;;;;;;9.47;2.20;;;;;;;;;;5065714;28;20275;-75
2021/12/20 13:18:09;;;;;;;11.23;2.70;;;;;;;;;;5066225;28;20998;-75
2021/12/20 13:20:44;;;;;;;8.20;2.67;;;;;;;;;;5066193;28;20718;-75
2021/12/20 13:23:14;;;;;;;12.43;2.20;;;;;;;;;;5067859;28;20208;-75
2021/12/20 13:25:45;;;;;;;10.83;2.20;;;;;;;;;;5065551;28;20245;-76
2021/12/20 13:28:15;;;;;;;14.43;3.33;;;;;;;;;;5066514;28;20461;-75
2021/12/20 13:30:48;;;;;;;11.53;2.70;;;;;;;;;;5068366;28;20256;-75
2021/12/20 13:33:16;;;;;;;10.37;2.30;;;;;;;;;;5066640;28;20211;-76
2021/12/20 13:35:44;;;;;;;14.07;2.87;;;;;;;;;;5067592;28;20217;-76
2021/12/20 13:38:17;;;;;;;10.53;2.23;;;;;;;;;;5063889;28;20212;-75
2021/12/20 13:40:50;;;;;;;10.60;2.10;;;;;;;;;;5066745;28;20243;-75
2021/12/20 13:43:20;;;;;;;11.30;2.30;;;;;;;;;;5067579;28;20216;-76
2021/12/20 13:46:04;;;;;;;23.13;4.00;;;;;;;;;;5067035;28;20243;-75
2021/12/20 13:48:30;;;;;;;14.27;3.60;;;;;;;;;;5065086;28;20280;-75
2021/12/20 13:50:56;;;;;;;8.80;3.20;;;;;;;;;;5066977;28;20225;-76
2021/12/20 13:53:34;;;;;;;9.93;3.20;;;;;;;;;;5066122;28;20223;-76
2021/12/20 13:56:04;;;;;;;15.60;3.20;;;;;;;;;;5065755;28;20234;-76
2021/12/20 13:58:31;;;;;;;11.97;2.87;;;;;;;;;;5069702;28;20207;-76
2021/12/20 14:00:59;;;;;;;9.30;2.83;;;;;;;;;;5069449;28;20752;-75
2021/12/20 14:03:26;;;;;;;17.50;4.87;;;;;;;;;;5070136;28;20219;-76
2021/12/20 14:05:53;;;;;;;14.57;3.30;;;;;;;;;;5068707;28;20261;-76
2021/12/20 14:08:23;;;;;;;15.17;4.13;;;;;;;;;;5070816;28;20230;-76
2021/12/20 14:10:50;;;;;;;17.67;4.07;;;;;;;;;;5070371;28;20250;-76
2021/12/20 14:13:20;;;;;;;13.67;2.90;;;;;;;;;;5069765;28;20611;-76
2021/12/20 14:15:49;;;;;;;15.67;3.20;;;;;;;;;;5069529;28;20235;-76
2021/12/20 14:18:17;;;;;;;17.90;3.87;;;;;;;;;;5069985;28;20210;-75
2021/12/20 14:20:46;;;;;;;11.23;2.73;;;;;;;;;;5070460;28;20217;-76
2021/12/20 14:23:26;;;;;;;21.17;3.83;;;;;;;;;;5068887;28;20221;-75
2021/12/20 14:26:02;;;;;;;15.57;3.80;;;;;;;;;;5068757;28;20248;-76
2021/12/20 14:28:31;;;;;;;16.50;3.43;;;;;;;;;;5067574;28;20865;-75
2021/12/20 14:31:00;;;;;;;17.67;5.10;;;;;;;;;;5068046;28;20232;-77
2021/12/20 14:33:28;;;;;;;15.33;4.50;;;;;;;;;;5067698;28;20203;-76
2021/12/20 14:35:59;;;;;;;13.13;5.20;;;;;;;;;;5068107;28;20213;-75
2021/12/20 14:38:28;;;;;;;16.27;4.17;;;;;;;;;;5067659;28;20216;-76
2021/12/20 14:40:55;;;;;;;20.93;4.33;;;;;;;;;;5064333;28;20234;-77
2021/12/20 14:43:27;;;;;;;20.27;5.23;;;;;;;;;;5069740;28;20219;-75
2021/12/20 14:46:13;;;;;;;15.30;5.63;;;;;;;;;;5067727;28;20230;-75
2021/12/20 14:48:44;;;;;;;15.73;4.93;;;;;;;;;;5067446;28;20230;-78
2021/12/20 14:51:15;;;;;;;13.93;4.27;;;;;;;;;;5067924;28;20693;-76
2021/12/20 14:53:42;;;;;;;15.97;4.80;;;;;;;;;;5069917;28;20214;-75
2021/12/20 14:56:09;;;;;;;15.37;3.40;;;;;;;;;;5066691;28;20226;-75
2021/12/20 14:58:36;;;;;;;14.00;3.73;;;;;;;;;;5069180;28;20681;-76
2021/12/20 15:01:03;;;;;;;15.53;4.90;;;;;;;;;;5068337;28;20299;-76